createdAt,value
2018-07-01T04:01:00.985Z,56.01
2018-07-01T04:02:00.862Z,55.44
2018-07-01T04:03:53.565Z,56.39
2018-07-01T04:04:53.447Z,55.63
2018-07-01T04:06:46.125Z,56.30
2018-07-01T04:07:46.017Z,56.87
2018-07-01T04:09:38.717Z,56.49
2018-07-01T04:10:38.598Z,56.77
2018-07-01T04:12:31.281Z,56.49
2018-07-01T04:13:31.177Z,56.20
2018-07-01T04:15:23.879Z,55.82
2018-07-01T04:16:23.758Z,55.82
2018-07-01T04:18:16.455Z,55.63
2018-07-01T04:19:16.333Z,55.82
2018-07-01T04:21:09.020Z,55.91
2018-07-01T04:22:08.916Z,55.91
2018-07-01T04:24:01.615Z,56.10
2018-07-01T04:25:01.497Z,56.30
2018-07-01T04:26:54.186Z,56.20
2018-07-01T04:27:54.077Z,55.73
2018-07-01T04:29:46.779Z,55.82
2018-07-01T04:30:46.656Z,55.82
2018-07-01T04:32:39.338Z,55.53
2018-07-01T04:33:39.229Z,56.01
2018-07-01T04:35:31.936Z,56.01
2018-07-01T04:36:31.809Z,56.01
2018-07-01T04:38:24.521Z,55.85
2018-07-01T04:39:24.387Z,55.75
2018-07-01T04:41:17.068Z,56.32
2018-07-01T04:42:16.968Z,56.42
2018-07-01T04:44:09.666Z,56.13
2018-07-01T04:45:09.548Z,55.94
2018-07-01T04:47:02.231Z,55.85
2018-07-01T04:48:02.125Z,56.04
2018-07-01T04:49:54.852Z,56.04
2018-07-01T04:50:54.706Z,55.85
2018-07-01T04:52:47.388Z,55.27
2018-07-01T04:53:47.287Z,55.27
2018-07-01T04:55:39.989Z,55.46
2018-07-01T04:56:39.863Z,55.65
2018-07-01T04:58:32.537Z,55.94
2018-07-01T04:59:32.432Z,55.08
2018-07-01T05:01:25.131Z,55.46
2018-07-01T05:02:25.051Z,55.08
2018-07-01T05:04:17.689Z,55.18
2018-07-01T05:05:17.584Z,54.89
2018-07-01T05:07:10.291Z,54.70
2018-07-01T05:08:10.151Z,54.53
2018-07-01T05:10:02.831Z,54.99
2018-07-01T05:11:02.727Z,55.30
2018-07-01T05:12:55.430Z,55.18
2018-07-01T05:13:55.308Z,54.53
2018-07-01T05:15:47.988Z,55.30
2018-07-01T05:16:47.879Z,54.82
2018-07-01T05:18:40.576Z,54.63
2018-07-01T05:19:40.458Z,54.72
2018-07-01T05:21:33.139Z,54.15
2018-07-01T05:22:33.034Z,54.63
2018-07-01T05:24:25.748Z,54.34
2018-07-01T05:25:25.610Z,53.96
2018-07-01T05:27:18.282Z,54.66
2018-07-01T05:28:18.181Z,54.75
2018-07-01T05:30:10.881Z,53.86
2018-07-01T05:31:10.753Z,53.58
2018-07-01T05:33:03.457Z,54.37
2018-07-01T05:34:03.337Z,54.56
2018-07-01T05:35:56.015Z,53.89
2018-07-01T05:36:55.911Z,54.56
2018-07-01T05:38:48.608Z,53.99
2018-07-01T05:39:48.488Z,53.79
2018-07-01T05:41:41.197Z,53.79
2018-07-01T05:42:41.093Z,53.89
2018-07-01T05:44:33.791Z,53.79
2018-07-01T05:45:33.672Z,53.70
2018-07-01T05:47:26.360Z,53.44
2018-07-01T05:48:26.259Z,53.53
2018-07-01T05:50:18.963Z,52.86
2018-07-01T05:51:18.839Z,52.76
2018-07-01T05:53:11.538Z,52.67
2018-07-01T05:54:11.415Z,52.38
2018-07-01T05:56:04.093Z,51.71
2018-07-01T05:57:03.998Z,51.81
2018-07-01T05:58:56.691Z,52.09
2018-07-01T05:59:56.572Z,51.90
2018-07-01T06:01:49.248Z,51.71
2018-07-01T06:02:49.145Z,51.61
2018-07-01T06:04:41.848Z,51.93
2018-07-01T06:05:41.719Z,51.93
2018-07-01T06:07:34.408Z,51.54
2018-07-01T06:08:34.339Z,51.45
2018-07-01T06:10:27.015Z,51.64
2018-07-01T06:11:26.894Z,50.87
2018-07-01T06:13:19.573Z,50.13
2018-07-01T06:14:19.475Z,49.74
2018-07-01T06:16:12.170Z,48.52
2018-07-01T06:17:12.053Z,46.43
2018-07-01T06:19:04.735Z,40.34
2018-07-01T06:20:04.629Z,36.16
2018-07-01T06:21:57.496Z,29.91
2018-07-01T06:22:57.228Z,28.68
2018-07-01T06:24:49.915Z,25.63
2018-07-01T06:25:49.823Z,24.56
2018-07-01T06:27:42.537Z,23.21
2018-07-01T06:28:42.431Z,22.94
2018-07-01T06:30:35.134Z,21.69
2018-07-01T06:31:35.040Z,21.57
2018-07-01T06:33:27.769Z,22.55
2018-07-01T06:34:27.660Z,21.29
2018-07-01T06:36:20.371Z,20.82
2018-07-01T06:37:20.280Z,19.65
2018-07-01T06:39:13.023Z,21.00
2018-07-01T06:40:12.903Z,20.43
2018-07-01T06:42:05.668Z,19.87
2018-07-01T06:43:05.529Z,18.80
2018-07-01T06:44:58.257Z,18.59
2018-07-01T06:45:58.161Z,18.31
2018-07-01T06:47:50.866Z,17.55
2018-07-01T06:48:50.780Z,17.05
2018-07-01T06:50:43.509Z,16.97
2018-07-01T06:51:43.413Z,17.24
2018-07-01T06:53:36.131Z,17.44
2018-07-01T06:54:36.049Z,17.05
2018-07-01T06:56:28.789Z,16.56
2018-07-01T06:57:28.680Z,17.51
2018-07-01T06:59:21.401Z,17.44
2018-07-01T07:00:21.311Z,16.86
2018-07-01T07:02:14.047Z,15.90
2018-07-01T07:03:13.944Z,15.79
2018-07-01T07:05:06.663Z,16.55
2018-07-01T07:06:06.577Z,16.08
2018-07-01T07:07:59.327Z,16.38
2018-07-01T07:08:59.226Z,15.52
2018-07-01T07:10:51.938Z,15.52
2018-07-01T07:11:51.863Z,14.15
2018-07-01T07:13:44.608Z,14.84
2018-07-01T07:14:44.500Z,13.67
2018-07-01T07:16:37.221Z,13.65
2018-07-01T07:17:37.143Z,13.95
2018-07-01T07:19:29.892Z,13.85
2018-07-01T07:20:29.779Z,13.75
2018-07-01T07:22:22.506Z,13.65
2018-07-01T07:23:22.424Z,13.57
2018-07-01T07:25:15.299Z,13.76
2018-07-01T07:26:15.063Z,13.45
2018-07-01T07:28:07.780Z,12.86
2018-07-01T07:29:07.704Z,13.45
2018-07-01T07:31:00.440Z,13.05
2018-07-01T07:32:00.352Z,13.06
2018-07-01T07:33:53.061Z,12.77
2018-07-01T07:34:52.977Z,12.79
2018-07-01T07:36:45.725Z,12.21
2018-07-01T07:37:45.620Z,12.10
2018-07-01T07:39:38.339Z,11.13
2018-07-01T07:40:38.254Z,12.19
2018-07-01T07:42:30.996Z,11.69
2018-07-01T07:43:30.901Z,12.87
2018-07-01T07:45:23.618Z,12.96
2018-07-01T07:46:23.552Z,12.18
2018-07-01T07:48:16.279Z,12.67
2018-07-01T07:49:16.175Z,11.11
2018-07-01T07:51:08.899Z,12.27
2018-07-01T07:52:08.872Z,11.90
2018-07-01T07:54:01.563Z,11.12
2018-07-01T07:55:01.455Z,11.22
2018-07-01T07:56:54.190Z,11.99
2018-07-01T07:57:54.105Z,12.67
2018-07-01T07:59:46.847Z,11.60
2018-07-01T08:00:46.743Z,11.29
2018-07-01T08:02:39.464Z,12.96
2018-07-01T08:03:39.391Z,12.47
2018-07-01T08:05:32.129Z,12.87
2018-07-01T08:06:32.034Z,12.77
2018-07-01T08:08:24.750Z,11.88
2018-07-01T08:09:24.675Z,12.08
2018-07-01T08:11:17.422Z,12.16
2018-07-01T08:12:17.312Z,11.98
2018-07-01T08:14:10.032Z,12.19
2018-07-01T08:15:09.951Z,12.17
2018-07-01T08:17:02.697Z,12.18
2018-07-01T08:18:02.586Z,13.24
2018-07-01T08:19:55.313Z,13.04
2018-07-01T08:20:55.230Z,13.21
2018-07-01T08:22:47.980Z,13.81
2018-07-01T08:23:47.866Z,13.51
2018-07-01T08:25:40.732Z,13.43
2018-07-01T08:26:40.507Z,13.32
2018-07-01T08:28:33.253Z,13.23
2018-07-01T08:29:33.146Z,12.74
2018-07-01T08:31:26.870Z,13.12
2018-07-01T08:32:26.791Z,13.20
2018-07-01T08:34:19.533Z,13.22
2018-07-01T08:35:19.428Z,12.74
2018-07-01T08:37:12.148Z,13.42
2018-07-01T08:38:12.062Z,13.62
2018-07-01T08:40:04.852Z,13.61
2018-07-01T08:41:04.702Z,13.32
2018-07-01T08:42:57.417Z,13.51
2018-07-01T08:43:57.337Z,13.71
2018-07-01T08:45:50.084Z,15.08
2018-07-01T08:46:49.975Z,14.38
2018-07-01T08:48:42.700Z,14.65
2018-07-01T08:49:42.616Z,14.93
2018-07-01T08:51:35.370Z,16.48
2018-07-01T08:52:35.265Z,17.24
2018-07-01T08:54:27.974Z,17.52
2018-07-01T08:55:27.890Z,18.01
2018-07-01T08:57:20.633Z,18.49
2018-07-01T08:58:20.514Z,19.26
2018-07-01T09:00:13.241Z,20.21
2018-07-01T09:01:13.142Z,20.77
2018-07-01T09:03:05.869Z,22.12
2018-07-01T09:04:05.765Z,22.12
2018-07-01T09:05:58.463Z,22.79
2018-07-01T09:06:58.374Z,22.90
2018-07-01T09:08:51.181Z,23.28
2018-07-01T09:09:50.981Z,21.92
2018-07-01T09:11:43.681Z,21.33
2018-07-01T09:12:43.593Z,23.08
2018-07-01T09:14:36.314Z,23.37
2018-07-01T09:15:36.192Z,23.37
2018-07-01T09:17:28.895Z,22.30
2018-07-01T09:18:28.797Z,21.72
2018-07-01T09:20:21.516Z,22.00
2018-07-01T09:21:21.400Z,21.71
2018-07-01T09:23:14.098Z,22.39
2018-07-01T09:24:14.008Z,21.89
2018-07-01T09:26:06.729Z,22.17
2018-07-01T09:27:06.609Z,22.67
2018-07-01T09:28:59.381Z,22.08
2018-07-01T09:29:59.204Z,22.27
2018-07-01T09:31:51.925Z,22.56
2018-07-01T09:32:51.803Z,22.27
2018-07-01T09:34:44.558Z,22.86
2018-07-01T09:35:44.399Z,22.67
2018-07-01T09:37:37.114Z,23.44
2018-07-01T09:38:37.004Z,22.19
2018-07-01T09:40:29.693Z,22.48
2018-07-01T09:41:29.599Z,22.86
2018-07-01T09:43:22.322Z,22.86
2018-07-01T09:44:22.197Z,22.67
2018-07-01T09:46:14.895Z,22.77
2018-07-01T09:47:14.797Z,23.06
2018-07-01T09:49:07.507Z,22.17
2018-07-01T09:50:07.400Z,22.95
2018-07-01T09:52:00.232Z,22.75
2018-07-01T09:53:00.009Z,23.43
2018-07-01T09:54:52.719Z,23.64
2018-07-01T09:55:52.603Z,22.75
2018-07-01T09:57:45.322Z,24.40
2018-07-01T09:58:45.195Z,23.72
2018-07-01T10:00:37.886Z,24.12
2018-07-01T10:01:37.792Z,23.83
2018-07-01T10:03:30.507Z,23.85
2018-07-01T10:04:30.391Z,24.04
2018-07-01T10:06:23.093Z,21.89
2018-07-01T10:07:23.051Z,22.48
2018-07-01T10:09:15.709Z,22.48
2018-07-01T10:10:15.588Z,23.54
2018-07-01T10:12:08.295Z,22.67
2018-07-01T10:13:08.193Z,23.54
2018-07-01T10:15:00.911Z,22.67
2018-07-01T10:16:00.792Z,22.28
2018-07-01T10:17:53.485Z,23.44
2018-07-01T10:18:53.426Z,23.46
2018-07-01T10:20:46.095Z,22.78
2018-07-01T10:21:45.977Z,23.65
2018-07-01T10:23:38.673Z,22.58
2018-07-01T10:24:38.573Z,23.46
2018-07-01T10:26:31.440Z,22.39
2018-07-01T10:27:31.169Z,23.36
2018-07-01T10:29:23.866Z,23.46
2018-07-01T10:30:23.780Z,22.39
2018-07-01T10:32:16.486Z,23.65
2018-07-01T10:33:16.369Z,23.46
2018-07-01T10:35:09.098Z,22.39
2018-07-01T10:36:08.970Z,23.46
2018-07-01T10:38:01.670Z,23.85
2018-07-01T10:39:01.564Z,23.76
2018-07-01T10:40:54.287Z,22.30
2018-07-01T10:41:54.169Z,22.30
2018-07-01T10:43:46.861Z,22.20
2018-07-01T10:44:46.768Z,22.30
2018-07-01T10:46:39.481Z,22.39
2018-07-01T10:47:39.359Z,23.36
2018-07-01T10:49:32.057Z,22.19
2018-07-01T10:50:31.956Z,22.38
2018-07-01T10:52:24.673Z,22.67
2018-07-01T10:53:24.560Z,22.19
2018-07-01T10:55:17.252Z,22.28
2018-07-01T10:56:17.157Z,22.48
2018-07-01T10:58:09.880Z,23.75
2018-07-01T10:59:09.768Z,22.19
2018-07-01T11:01:02.458Z,23.35
2018-07-01T11:02:02.369Z,22.67
2018-07-01T11:03:55.077Z,24.03
2018-07-01T11:04:54.956Z,23.63
2018-07-01T11:06:47.648Z,23.92
2018-07-01T11:07:47.556Z,24.02
2018-07-01T11:09:40.265Z,23.53
2018-07-01T11:10:40.151Z,23.63
2018-07-01T11:12:32.860Z,23.92
2018-07-01T11:13:32.745Z,23.93
2018-07-01T11:15:25.441Z,23.43
2018-07-01T11:16:25.338Z,23.53
2018-07-01T11:18:18.055Z,24.90
2018-07-01T11:19:17.941Z,24.32
2018-07-01T11:21:10.786Z,23.54
2018-07-01T11:22:10.535Z,23.72
2018-07-01T11:24:03.239Z,23.93
2018-07-01T11:25:03.123Z,23.14
2018-07-01T11:26:56.142Z,24.02
2018-07-01T11:27:55.724Z,24.90
2018-07-01T11:29:48.433Z,24.21
2018-07-01T11:30:48.312Z,24.40
2018-07-01T11:32:41.038Z,24.12
2018-07-01T11:33:40.913Z,25.19
2018-07-01T11:35:33.622Z,23.83
2018-07-01T11:36:33.500Z,23.16
2018-07-01T11:38:26.196Z,22.77
2018-07-01T11:39:26.102Z,23.75
2018-07-01T11:41:18.827Z,23.54
2018-07-01T11:42:18.695Z,22.67
2018-07-01T11:44:11.382Z,22.77
2018-07-01T11:45:11.313Z,23.44
2018-07-01T11:47:03.999Z,22.30
2018-07-01T11:48:03.885Z,22.28
2018-07-01T11:49:56.581Z,22.67
2018-07-01T11:50:56.476Z,23.44
2018-07-01T11:52:49.230Z,21.61
2018-07-01T11:53:49.109Z,22.19
2018-07-01T11:55:41.805Z,22.48
2018-07-01T11:56:41.712Z,22.57
2018-07-01T11:58:34.436Z,22.77
2018-07-01T11:59:34.304Z,21.51
2018-07-01T12:01:26.999Z,21.80
2018-07-01T12:02:26.905Z,21.71
2018-07-01T12:04:19.610Z,21.81
2018-07-01T12:05:19.536Z,21.81
2018-07-01T12:07:12.196Z,21.91
2018-07-01T12:08:12.093Z,22.09
2018-07-01T12:10:04.804Z,21.80
2018-07-01T12:11:04.695Z,22.48
2018-07-01T12:12:57.386Z,23.46
2018-07-01T12:13:57.289Z,21.71
2018-07-01T12:15:49.998Z,21.61
2018-07-01T12:16:49.884Z,22.58
2018-07-01T12:18:42.574Z,21.31
2018-07-01T12:19:42.474Z,21.91
2018-07-01T12:21:35.192Z,22.48
2018-07-01T12:22:35.079Z,21.80
2018-07-01T12:24:27.766Z,21.70
2018-07-01T12:25:27.667Z,21.99
2018-07-01T12:27:20.388Z,22.19
2018-07-01T12:28:20.262Z,21.81
2018-07-01T12:30:12.956Z,21.99
2018-07-01T12:31:12.854Z,22.48
2018-07-01T12:33:05.572Z,23.44
2018-07-01T12:34:05.450Z,23.06
2018-07-01T12:35:58.141Z,23.55
2018-07-01T12:36:58.046Z,22.88
2018-07-01T12:38:50.764Z,22.10
2018-07-01T12:39:50.641Z,22.78
2018-07-01T12:41:43.338Z,22.10
2018-07-01T12:42:43.237Z,21.81
2018-07-01T12:44:35.959Z,22.67
2018-07-01T12:45:35.830Z,22.30
2018-07-01T12:47:28.527Z,22.68
2018-07-01T12:48:28.429Z,22.39
2018-07-01T12:50:21.185Z,22.49
2018-07-01T12:51:21.043Z,22.39
2018-07-01T12:53:13.738Z,22.39
2018-07-01T12:54:13.635Z,21.71
2018-07-01T12:56:06.404Z,22.88
2018-07-01T12:57:06.231Z,22.78
2018-07-01T12:58:58.924Z,23.46
2018-07-01T12:59:58.828Z,23.36
2018-07-01T13:01:51.687Z,23.07
2018-07-01T13:02:51.420Z,23.26
2018-07-01T13:04:44.111Z,23.46
2018-07-01T13:05:44.017Z,23.26
2018-07-01T13:07:36.728Z,23.75
2018-07-01T13:08:36.641Z,23.94
2018-07-01T13:10:29.298Z,23.95
2018-07-01T13:11:29.201Z,23.08
2018-07-01T13:13:21.923Z,23.55
2018-07-01T13:14:21.797Z,22.89
2018-07-01T13:16:14.493Z,23.37
2018-07-01T13:17:14.397Z,22.40
2018-07-01T13:19:07.106Z,23.57
2018-07-01T13:20:06.996Z,23.16
2018-07-01T13:21:59.687Z,23.37
2018-07-01T13:22:59.587Z,23.76
2018-07-01T13:24:52.307Z,23.66
2018-07-01T13:25:52.184Z,23.08
2018-07-01T13:27:44.875Z,23.47
2018-07-01T13:28:44.776Z,23.08
2018-07-01T13:30:37.487Z,23.37
2018-07-01T13:31:37.373Z,23.47
2018-07-01T13:33:30.065Z,24.05
2018-07-01T13:34:29.967Z,23.95
2018-07-01T13:36:22.680Z,23.68
2018-07-01T13:37:22.571Z,23.09
2018-07-01T13:39:15.253Z,23.18
2018-07-01T13:40:15.159Z,23.08
2018-07-01T13:42:07.868Z,23.57
2018-07-01T13:43:07.756Z,23.66
2018-07-01T13:45:00.453Z,24.34
2018-07-01T13:46:00.355Z,24.05
2018-07-01T13:47:53.072Z,23.76
2018-07-01T13:48:52.948Z,23.47
2018-07-01T13:50:45.642Z,23.57
2018-07-01T13:51:45.541Z,23.86
2018-07-01T13:53:38.268Z,24.23
2018-07-01T13:54:38.149Z,24.34
2018-07-01T13:56:30.838Z,24.13
2018-07-01T13:57:30.745Z,24.05
2018-07-01T13:59:23.449Z,25.41
2018-07-01T14:00:23.337Z,25.12
2018-07-01T14:02:16.030Z,24.43
2018-07-01T14:03:15.937Z,25.02
2018-07-01T14:05:08.649Z,25.60
2018-07-01T14:06:08.530Z,25.32
2018-07-01T14:08:01.229Z,24.35
2018-07-01T14:09:01.138Z,23.86
2018-07-01T14:10:53.852Z,24.45
2018-07-01T14:11:53.734Z,24.26
2018-07-01T14:13:46.433Z,24.84
2018-07-01T14:14:46.332Z,25.13
2018-07-01T14:16:39.089Z,23.96
2018-07-01T14:17:38.932Z,24.45
2018-07-01T14:19:31.623Z,24.55
2018-07-01T14:20:31.525Z,24.06
2018-07-01T14:22:24.240Z,23.87
2018-07-01T14:23:24.207Z,23.58
2018-07-01T14:25:16.819Z,25.13
2018-07-01T14:26:16.716Z,24.65
2018-07-01T14:28:09.430Z,23.77
2018-07-01T14:29:09.311Z,23.76
2018-07-01T14:31:02.010Z,24.24
2018-07-01T14:32:01.916Z,24.26
2018-07-01T14:33:54.623Z,25.13
2018-07-01T14:34:54.511Z,24.45
2018-07-01T14:36:47.207Z,24.45
2018-07-01T14:37:47.104Z,24.35
2018-07-01T14:39:39.829Z,25.04
2018-07-01T14:40:39.700Z,24.56
2018-07-01T14:42:32.400Z,23.97
2018-07-01T14:43:32.341Z,24.07
2018-07-01T14:45:25.009Z,23.88
2018-07-01T14:46:24.897Z,23.30
2018-07-01T14:48:17.585Z,23.69
2018-07-01T14:49:17.522Z,24.06
2018-07-01T14:51:10.204Z,24.26
2018-07-01T14:52:10.083Z,24.16
2018-07-01T14:54:02.781Z,23.58
2018-07-01T14:55:02.678Z,23.77
2018-07-01T14:56:55.399Z,23.87
2018-07-01T14:57:55.271Z,24.26
2018-07-01T14:59:47.967Z,24.45
2018-07-01T15:00:47.876Z,24.26
2018-07-01T15:02:40.587Z,23.48
2018-07-01T15:03:40.473Z,23.38
2018-07-01T15:05:33.169Z,23.96
2018-07-01T15:06:33.069Z,24.06
2018-07-01T15:08:25.786Z,24.06
2018-07-01T15:09:25.669Z,24.35
2018-07-01T15:11:18.360Z,23.68
2018-07-01T15:12:18.258Z,23.38
2018-07-01T15:14:10.983Z,23.88
2018-07-01T15:15:10.851Z,23.79
2018-07-01T15:17:03.554Z,23.58
2018-07-01T15:18:03.461Z,23.68
2018-07-01T15:19:56.179Z,23.09
2018-07-01T15:20:56.052Z,23.19
2018-07-01T15:22:48.740Z,23.38
2018-07-01T15:23:48.644Z,23.09
2018-07-01T15:25:41.361Z,24.35
2018-07-01T15:26:41.238Z,25.43
2018-07-01T15:28:33.943Z,24.93
2018-07-01T15:29:33.839Z,22.90
2018-07-01T15:31:26.554Z,23.38
2018-07-01T15:32:26.428Z,23.28
2018-07-01T15:34:19.122Z,22.51
2018-07-01T15:35:19.022Z,23.96
2018-07-01T15:37:11.742Z,22.51
2018-07-01T15:38:11.620Z,22.71
2018-07-01T15:40:04.332Z,23.96
2018-07-01T15:41:04.212Z,24.35
2018-07-01T15:42:56.927Z,24.06
2018-07-01T15:43:56.806Z,23.58
2018-07-01T15:45:49.496Z,24.26
2018-07-01T15:46:49.400Z,23.87
2018-07-01T15:48:42.126Z,23.68
2018-07-01T15:49:41.998Z,23.58
2018-07-01T15:51:34.688Z,23.58
2018-07-01T15:52:34.585Z,24.45
2018-07-01T15:54:27.296Z,23.48
2018-07-01T15:55:27.184Z,23.28
2018-07-01T15:57:19.872Z,23.48
2018-07-01T15:58:19.778Z,23.38
2018-07-01T16:00:12.485Z,22.61
2018-07-01T16:01:12.369Z,23.48
2018-07-01T16:03:05.066Z,24.16
2018-07-01T16:04:04.965Z,23.87
2018-07-01T16:05:57.677Z,22.69
2018-07-01T16:06:57.564Z,22.89
2018-07-01T16:08:50.254Z,23.66
2018-07-01T16:09:50.158Z,23.57
2018-07-01T16:11:43.392Z,22.90
2018-07-01T16:12:43.245Z,22.41
2018-07-01T16:14:35.939Z,22.80
2018-07-01T16:15:35.840Z,22.80
2018-07-01T16:17:28.567Z,22.69
2018-07-01T16:18:28.439Z,22.41
2018-07-01T16:20:21.128Z,22.20
2018-07-01T16:21:21.029Z,21.93
2018-07-01T16:23:13.739Z,22.60
2018-07-01T16:24:13.619Z,22.99
2018-07-01T16:26:06.360Z,22.30
2018-07-01T16:27:06.227Z,22.02
2018-07-01T16:28:58.935Z,22.30
2018-07-01T16:29:58.822Z,22.69
2018-07-01T16:31:51.512Z,22.89
2018-07-01T16:32:51.414Z,22.30
2018-07-01T16:34:44.120Z,22.11
2018-07-01T16:35:44.010Z,21.82
2018-07-01T16:37:36.702Z,21.72
2018-07-01T16:38:36.608Z,22.79
2018-07-01T16:40:29.318Z,22.60
2018-07-01T16:41:29.197Z,22.50
2018-07-01T16:43:21.894Z,22.78
2018-07-01T16:44:21.797Z,22.60
2018-07-01T16:46:14.516Z,22.58
2018-07-01T16:47:14.393Z,23.27
2018-07-01T16:49:07.093Z,22.49
2018-07-01T16:50:06.990Z,22.40
2018-07-01T16:51:59.710Z,22.30
2018-07-01T16:52:59.595Z,22.69
2018-07-01T16:54:52.277Z,22.68
2018-07-01T16:55:52.180Z,23.08
2018-07-01T16:57:44.891Z,22.79
2018-07-01T16:58:44.770Z,22.40
2018-07-01T17:00:37.473Z,23.07
2018-07-01T17:01:37.368Z,22.40
2018-07-01T17:03:30.084Z,22.00
2018-07-01T17:04:29.969Z,22.10
2018-07-01T17:06:22.662Z,22.10
2018-07-01T17:07:22.564Z,22.39
2018-07-01T17:09:15.284Z,22.00
2018-07-01T17:10:15.162Z,22.30
2018-07-01T17:12:07.852Z,22.68
2018-07-01T17:13:07.754Z,21.51
2018-07-01T17:15:00.478Z,23.65
2018-07-01T17:16:00.346Z,22.68
2018-07-01T17:17:53.051Z,21.99
2018-07-01T17:18:52.951Z,22.49
2018-07-01T17:20:45.671Z,22.39
2018-07-01T17:21:45.545Z,22.20
2018-07-01T17:23:38.469Z,22.39
2018-07-01T17:24:38.146Z,22.30
2018-07-01T17:26:30.856Z,22.68
2018-07-01T17:27:30.746Z,22.30
2018-07-01T17:29:23.436Z,22.48
2018-07-01T17:30:23.334Z,22.78
2018-07-01T17:32:16.051Z,22.77
2018-07-01T17:33:15.954Z,23.06
2018-07-01T17:35:08.626Z,22.67
2018-07-01T17:36:08.529Z,22.57
2018-07-01T17:38:01.243Z,22.67
2018-07-01T17:39:01.118Z,23.16
2018-07-01T17:40:53.811Z,23.06
2018-07-01T17:41:53.716Z,23.44
2018-07-01T17:43:46.425Z,22.28
2018-07-01T17:44:46.308Z,22.67
2018-07-01T17:46:38.998Z,22.77
2018-07-01T17:47:38.902Z,23.44
2018-07-01T17:49:31.617Z,22.19
2018-07-01T17:50:31.519Z,22.86
2018-07-01T17:52:24.196Z,22.67
2018-07-01T17:53:24.189Z,22.28
2018-07-01T17:55:16.819Z,21.99
2018-07-01T17:56:16.683Z,23.06
2018-07-01T17:58:09.375Z,22.96
2018-07-01T17:59:09.281Z,23.35
2018-07-01T18:01:02.000Z,24.30
2018-07-01T18:02:01.876Z,23.53
2018-07-01T18:03:54.565Z,23.53
2018-07-01T18:04:54.467Z,22.56
2018-07-01T18:06:47.179Z,23.43
2018-07-01T18:07:47.063Z,23.43
2018-07-01T18:09:39.840Z,23.53
2018-07-01T18:10:39.655Z,23.53
2018-07-01T18:12:32.377Z,24.01
2018-07-01T18:13:32.256Z,23.81
2018-07-01T18:15:24.949Z,23.52
2018-07-01T18:16:24.855Z,23.23
2018-07-01T18:18:17.627Z,24.10
2018-07-01T18:19:17.509Z,23.99
2018-07-01T18:21:10.375Z,23.91
2018-07-01T18:22:18.303Z,23.91
2018-07-01T18:24:27.544Z,24.10
2018-07-01T18:25:09.840Z,24.29
2018-07-01T18:26:55.422Z,24.48
2018-07-01T18:28:07.484Z,23.99
2018-07-01T18:29:48.046Z,24.28
2018-07-01T18:30:47.926Z,24.18
2018-07-01T18:32:40.621Z,23.90
2018-07-01T18:33:40.523Z,23.70
2018-07-01T18:35:33.238Z,24.18
2018-07-01T18:36:33.118Z,24.38
2018-07-01T18:38:25.806Z,24.67
2018-07-01T18:39:25.702Z,25.05
2018-07-01T18:41:18.413Z,24.95
2018-07-01T18:42:18.297Z,25.24
2018-07-01T18:44:10.985Z,24.37
2018-07-01T18:45:10.883Z,24.37
2018-07-01T18:47:03.601Z,25.34
2018-07-01T18:48:03.479Z,25.72
2018-07-01T18:49:56.165Z,25.92
2018-07-01T18:50:56.071Z,25.72
2018-07-01T18:52:48.789Z,25.71
2018-07-01T18:53:48.655Z,26.48
2018-07-01T18:55:41.349Z,26.87
2018-07-01T18:56:41.245Z,26.09
2018-07-01T18:58:33.953Z,25.99
2018-07-01T18:59:33.842Z,26.86
2018-07-01T19:01:26.527Z,27.04
2018-07-01T19:02:26.427Z,26.37
2018-07-01T19:04:19.135Z,26.56
2018-07-01T19:05:19.016Z,27.14
2018-07-01T19:07:11.709Z,26.37
2018-07-01T19:08:11.616Z,26.46
2018-07-01T19:10:04.320Z,27.61
2018-07-01T19:11:04.192Z,26.45
2018-07-01T19:12:56.880Z,27.42
2018-07-01T19:13:56.779Z,27.61
2018-07-01T19:15:49.480Z,26.65
2018-07-01T19:16:49.367Z,27.31
2018-07-01T19:18:42.052Z,27.89
2018-07-01T19:19:41.955Z,27.40
2018-07-01T19:21:34.671Z,28.08
2018-07-01T19:22:34.546Z,28.28
2018-07-01T19:24:27.230Z,28.56
2018-07-01T19:25:27.135Z,28.37
2018-07-01T19:27:19.835Z,28.37
2018-07-01T19:28:19.717Z,28.94
2018-07-01T19:30:12.408Z,29.22
2018-07-01T19:31:12.303Z,28.64
2018-07-01T19:33:05.014Z,29.03
2018-07-01T19:34:04.941Z,28.55
2018-07-01T19:35:57.580Z,28.64
2018-07-01T19:36:57.478Z,29.42
2018-07-01T19:38:50.188Z,29.52
2018-07-01T19:39:50.069Z,30.08
2018-07-01T19:41:42.754Z,29.69
2018-07-01T19:42:42.828Z,29.79
2018-07-01T19:44:35.359Z,29.89
2018-07-01T19:45:35.235Z,30.08
2018-07-01T19:47:27.927Z,29.69
2018-07-01T19:48:27.830Z,30.18
2018-07-01T19:50:20.549Z,29.87
2018-07-01T19:51:20.420Z,30.45
2018-07-01T19:53:13.107Z,31.22
2018-07-01T19:54:13.007Z,31.22
2018-07-01T19:56:05.715Z,31.99
2018-07-01T19:57:05.595Z,31.70
2018-07-01T19:58:58.284Z,31.80
2018-07-01T19:59:58.184Z,31.80
2018-07-01T20:01:50.892Z,32.09
2018-07-01T20:02:50.772Z,31.99
2018-07-01T20:04:43.463Z,32.56
2018-07-01T20:05:43.360Z,32.75
2018-07-01T20:07:36.061Z,32.07
2018-07-01T20:08:35.945Z,31.98
2018-07-01T20:10:28.656Z,32.26
2018-07-01T20:11:28.532Z,32.65
2018-07-01T20:13:21.218Z,32.84
2018-07-01T20:14:21.127Z,32.75
2018-07-01T20:16:13.825Z,32.65
2018-07-01T20:17:13.706Z,32.34
2018-07-01T20:19:06.393Z,32.73
2018-07-01T20:20:06.290Z,33.50
2018-07-01T20:21:59.013Z,33.98
2018-07-01T20:22:58.880Z,33.50
2018-07-01T20:24:51.566Z,34.08
2018-07-01T20:25:51.466Z,33.79
2018-07-01T20:27:44.177Z,34.27
2018-07-01T20:28:44.053Z,34.27
2018-07-01T20:30:36.745Z,33.98
2018-07-01T20:31:36.635Z,34.08
2018-07-01T20:33:29.341Z,34.08
2018-07-01T20:34:29.235Z,34.46
2018-07-01T20:36:21.911Z,34.92
2018-07-01T20:37:21.810Z,35.31
2018-07-01T20:39:14.528Z,35.02
2018-07-01T20:40:14.396Z,35.50
2018-07-01T20:42:07.084Z,35.31
2018-07-01T20:43:07.034Z,35.41
2018-07-01T20:44:59.691Z,35.60
2018-07-01T20:45:59.570Z,35.60
2018-07-01T20:47:52.256Z,35.99
2018-07-01T20:48:52.154Z,35.79
2018-07-01T20:50:44.858Z,36.25
2018-07-01T20:51:44.736Z,36.18
2018-07-01T20:53:37.435Z,36.27
2018-07-01T20:54:37.320Z,36.25
2018-07-01T20:56:30.677Z,36.25
2018-07-01T20:57:29.911Z,36.93
2018-07-01T20:59:22.592Z,36.83
2018-07-01T21:00:22.493Z,36.93
2018-07-01T21:02:15.194Z,36.83
2018-07-01T21:03:15.075Z,36.45
2018-07-01T21:05:07.765Z,37.41
2018-07-01T21:06:07.658Z,37.60
2018-07-01T21:08:00.365Z,37.79
2018-07-01T21:09:00.251Z,37.70
2018-07-01T21:10:52.931Z,38.18
2018-07-01T21:11:52.857Z,37.59
2018-07-01T21:13:45.529Z,38.35
2018-07-01T21:14:45.406Z,38.07
2018-07-01T21:16:38.091Z,38.84
2018-07-01T21:17:38.029Z,38.74
2018-07-01T21:19:30.705Z,38.07
2018-07-01T21:20:30.624Z,38.45
2018-07-01T21:22:23.291Z,38.74
2018-07-01T21:23:23.161Z,38.35
2018-07-01T21:25:15.854Z,37.87
2018-07-01T21:26:15.751Z,38.35
2018-07-01T21:28:08.457Z,38.45
2018-07-01T21:29:08.337Z,38.64
2018-07-01T21:31:01.165Z,38.84
2018-07-01T21:32:00.943Z,38.93
2018-07-01T21:33:53.618Z,39.03
2018-07-01T21:34:53.488Z,38.54
2018-07-01T21:36:46.174Z,38.64
2018-07-01T21:37:46.068Z,39.39
2018-07-01T21:39:38.800Z,39.29
2018-07-01T21:40:38.668Z,39.49
2018-07-01T21:42:31.346Z,39.49
2018-07-01T21:43:31.250Z,39.78
2018-07-01T21:45:23.961Z,40.16
2018-07-01T21:46:23.836Z,39.97
2018-07-01T21:48:16.522Z,40.55
2018-07-01T21:49:16.455Z,40.64
2018-07-01T21:51:09.135Z,40.62
2018-07-01T21:52:09.017Z,40.91
2018-07-01T21:54:01.689Z,41.29
2018-07-01T21:55:01.590Z,40.81
2018-07-01T21:56:54.296Z,40.91
2018-07-01T21:57:54.174Z,40.91
2018-07-01T21:59:46.858Z,41.20
